Time;durP1;ratioP1;P1;durP2;ratioP2;P2;SDS_P1;SDS_P2;PMS_P1;PMS_P2;Temp;Humidity;BMP_temperature;BMP_pressure;BME280_temperature;BME280_humidity;BME280_pressure;Samples;Min_cycle;Max_cycle;Signal;HPM_P1;HPM_P2
2022/10/04 00:01:52;;;;;;;23.73;8.70;;;12.80;99.90;;;;;;5072788;28;20333;-70
2022/10/04 00:04:17;;;;;;;19.43;8.40;;;12.80;99.90;;;;;;5055472;28;20351;-70
2022/10/04 00:06:50;;;;;;;17.40;7.97;;;12.80;99.90;;;;;;5072729;28;21143;-70
2022/10/04 00:09:22;;;;;;;20.87;9.50;;;12.80;99.90;;;;;;5072952;28;20053;-70
2022/10/04 00:11:49;;;;;;;21.60;9.30;;;12.80;99.90;;;;;;5054953;28;20318;-70
2022/10/04 00:14:19;;;;;;;18.87;9.70;;;;;;;;;;5072960;28;20325;-70
2022/10/04 00:16:46;;;;;;;20.13;9.13;;;12.80;99.90;;;;;;5072646;28;20281;-70
2022/10/04 00:19:14;;;;;;;20.53;8.90;;;12.80;99.90;;;;;;5072662;28;20282;-69
2022/10/04 00:21:55;;;;;;;20.10;9.40;;;12.80;99.90;;;;;;5072567;28;20287;-70
2022/10/04 00:24:25;;;;;;;23.83;10.33;;;12.80;99.90;;;;;;5072744;28;20282;-70
2022/10/04 00:26:51;;;;;;;21.60;9.27;;;12.80;99.90;;;;;;5072727;28;20310;-70
2022/10/04 00:29:26;;;;;;;21.20;8.37;;;12.80;99.90;;;;;;5072845;28;20287;-69
2022/10/04 00:32:10;;;;;;;14.95;8.90;;;;;;;;;;5072655;28;20097;-69
2022/10/04 00:34:49;;;;;;;21.43;9.10;;;12.80;99.90;;;;;;5072352;28;20049;-69
2022/10/04 00:37:16;;;;;;;20.17;9.30;;;12.80;99.90;;;;;;5072805;28;20278;-69
2022/10/04 00:39:44;;;;;;;22.57;9.90;;;12.80;99.90;;;;;;5072400;28;20275;-70
2022/10/04 00:42:13;;;;;;;20.57;8.77;;;12.70;99.90;;;;;;5054967;28;20275;-70
2022/10/04 00:44:48;;;;;;;23.53;9.50;;;12.70;99.90;;;;;;5072250;28;20789;-70
2022/10/04 00:47:30;;;;;;;20.95;9.60;;;12.70;99.90;;;;;;5072645;28;20638;-70
2022/10/04 00:50:14;;;;;;;16.20;8.53;;;12.70;99.90;;;;;;5072670;28;20052;-69
2022/10/04 00:52:53;;;;;;;18.40;8.60;;;12.70;99.90;;;;;;5072425;28;20307;-69
2022/10/04 00:55:43;;;;;;;20.57;9.00;;;12.80;99.90;;;;;;5072602;28;20271;-69
2022/10/04 00:58:26;;;;;;;21.07;9.73;;;12.70;99.90;;;;;;5072538;28;20278;-70
2022/10/04 01:00:54;;;;;;;17.23;8.83;;;12.70;99.90;;;;;;5072273;28;20687;-70
2022/10/04 01:03:50;;;;;;;17.47;8.77;;;12.70;99.90;;;;;;5072159;28;20782;-70
2022/10/04 01:06:19;;;;;;;20.53;9.13;;;12.70;99.90;;;;;;5052157;28;20318;-69
2022/10/04 01:08:49;;;;;;;21.77;9.70;;;12.70;99.90;;;;;;5072086;28;20286;-70
2022/10/04 01:11:25;;;;;;;20.90;9.30;;;12.70;99.90;;;;;;5054468;28;20863;-69
2022/10/04 01:13:59;;;;;;;20.73;10.27;;;;;;;;;;5072196;28;20417;-69
2022/10/04 01:16:28;;;;;;;24.47;9.87;;;12.70;99.90;;;;;;5072489;28;20267;-70
2022/10/04 01:18:54;;;;;;;21.13;10.63;;;12.70;99.90;;;;;;5071896;28;20328;-70
2022/10/04 01:21:23;;;;;;;21.40;10.07;;;12.70;99.90;;;;;;5071675;28;20838;-70
2022/10/04 01:23:58;;;;;;;21.03;10.63;;;12.70;99.90;;;;;;5071836;28;20283;-70
2022/10/04 01:26:31;;;;;;;25.83;10.57;;;12.70;99.90;;;;;;5075711;28;20302;-70
2022/10/04 01:29:17;;;;;;;19.60;10.07;;;12.70;99.90;;;;;;5075518;28;20067;-70
2022/10/04 01:31:49;;;;;;;22.67;10.07;;;12.70;99.90;;;;;;5075430;28;20279;-70
2022/10/04 01:34:16;;;;;;;23.33;11.13;;;;;;;;;;5075667;28;20286;-70
2022/10/04 01:36:44;;;;;;;23.23;11.10;;;12.70;99.90;;;;;;5075412;28;20293;-70
2022/10/04 01:39:11;;;;;;;22.57;10.37;;;12.70;99.90;;;;;;5075629;28;20282;-70
2022/10/04 01:42:01;;;;;;;25.23;9.73;;;12.60;99.90;;;;;;5057677;28;20350;-70
2022/10/04 01:44:37;;;;;;;20.00;10.40;;;12.60;99.90;;;;;;5075333;28;20761;-70
2022/10/04 01:47:12;;;;;;;23.07;10.60;;;12.60;99.90;;;;;;5075595;28;20275;-70
2022/10/04 01:49:40;;;;;;;20.77;10.32;;;12.60;99.90;;;;;;5075175;28;20275;-70
2022/10/04 01:52:13;;;;;;;19.23;10.47;;;12.60;99.90;;;;;;5075285;28;20088;-69
2022/10/04 01:55:08;;;;;;;18.67;10.07;;;12.50;99.90;;;;;;5057234;28;20283;-70
2022/10/04 01:57:40;;;;;;;20.40;10.13;;;12.50;99.90;;;;;;5074753;28;20798;-70
2022/10/04 02:00:12;;;;;;;19.90;11.30;;;12.40;99.90;;;;;;5041140;28;20290;-70
2022/10/04 02:02:55;;;;;;;20.67;11.97;;;12.40;99.90;;;;;;5074917;28;20283;-72
2022/10/04 02:05:33;;;;;;;21.37;10.40;;;12.30;99.90;;;;;;5057064;28;20314;-70
2022/10/04 02:08:05;;;;;;;23.60;9.27;;;12.30;99.90;;;;;;5074874;28;20275;-70
2022/10/04 02:10:35;;;;;;;23.13;10.57;;;12.20;99.90;;;;;;5075073;28;20274;-70
2022/10/04 02:13:01;;;;;;;20.80;11.23;;;12.20;99.90;;;;;;5057118;28;20294;-70
2022/10/04 02:15:29;;;;;;;24.87;10.50;;;12.20;99.90;;;;;;5075007;28;20271;-70
2022/10/04 02:17:56;;;;;;;21.40;9.67;;;12.10;99.90;;;;;;5074645;28;20279;-70
2022/10/04 02:20:25;;;;;;;21.70;9.73;;;12.10;99.90;;;;;;5074543;28;20283;-70
2022/10/04 02:23:02;;;;;;;20.40;10.40;;;12.00;99.90;;;;;;5074553;28;20299;-70
2022/10/04 02:25:28;;;;;;;19.60;9.63;;;12.00;99.90;;;;;;5074756;28;20303;-70
2022/10/04 02:27:54;;;;;;;17.07;9.03;;;12.00;99.90;;;;;;5074449;28;20365;-70
2022/10/04 02:30:21;;;;;;;17.10;9.20;;;12.00;99.90;;;;;;5074674;28;20282;-70
2022/10/04 02:32:56;;;;;;;21.47;9.63;;;12.00;99.90;;;;;;5056765;28;20818;-70
2022/10/04 02:35:26;;;;;;;16.80;9.53;;;12.00;99.90;;;;;;5074504;28;20396;-70
2022/10/04 02:38:02;;;;;;;18.60;9.07;;;11.90;99.90;;;;;;5074287;28;20366;-70
2022/10/04 02:40:31;;;;;;;21.43;9.50;;;11.90;99.90;;;;;;5056881;28;20774;-70
2022/10/04 02:43:09;;;;;;;18.87;9.00;;;11.90;99.90;;;;;;5074158;28;20363;-70
2022/10/04 02:46:03;;;;;;;18.20;8.73;;;11.90;99.90;;;;;;5074448;28;20737;-70
2022/10/04 02:48:53;;;;;;;22.23;9.83;;;11.90;99.90;;;;;;5074070;28;20630;-70
2022/10/04 02:52:13;;;;;;;15.53;8.63;;;11.80;99.90;;;;;;5074417;28;20663;-70
2022/10/04 02:54:48;;;;;;;19.40;9.30;;;11.80;99.90;;;;;;4973200;28;20695;-70
2022/10/04 02:57:22;;;;;;;18.35;8.85;;;11.80;99.90;;;;;;4973351;28;20289;-70
2022/10/04 02:59:48;;;;;;;18.60;9.13;;;11.80;99.90;;;;;;5042206;28;20049;-70
2022/10/04 03:02:26;;;;;;;18.57;9.83;;;11.70;99.90;;;;;;5073976;28;20314;-70
2022/10/04 03:04:55;;;;;;;19.93;9.67;;;11.70;99.90;;;;;;5073711;28;20302;-69
2022/10/04 03:07:22;;;;;;;19.97;9.90;;;11.70;99.90;;;;;;5073803;28;20350;-70
2022/10/04 03:09:49;;;;;;;16.57;8.97;;;11.70;99.90;;;;;;5073493;28;20283;-70
2022/10/04 03:12:15;;;;;;;20.20;9.53;;;11.60;99.90;;;;;;5073949;28;20686;-70
2022/10/04 03:14:41;;;;;;;19.23;9.67;;;11.60;99.90;;;;;;5073718;28;20759;-70
2022/10/04 03:17:08;;;;;;;22.10;9.67;;;11.60;99.90;;;;;;5073450;28;20366;-70
2022/10/04 03:19:36;;;;;;;16.17;9.27;;;11.60;99.90;;;;;;5073461;28;20287;-70
2022/10/04 03:22:08;;;;;;;24.80;10.20;;;11.50;99.90;;;;;;5073398;28;20290;-70
2022/10/04 03:24:42;;;;;;;19.43;9.63;;;11.50;99.90;;;;;;5055918;28;20306;-70
2022/10/04 03:27:13;;;;;;;15.60;9.43;;;11.40;99.90;;;;;;5073246;28;20279;-70
2022/10/04 03:29:41;;;;;;;17.07;9.70;;;11.40;99.90;;;;;;5073519;28;20271;-70
2022/10/04 03:32:14;;;;;;;17.17;10.03;;;11.40;99.90;;;;;;5073218;28;20428;-70
2022/10/04 03:34:43;;;;;;;21.73;10.20;;;11.40;99.90;;;;;;5073407;28;20413;-70
2022/10/04 03:37:15;;;;;;;16.13;9.83;;;11.40;99.90;;;;;;5073119;28;20366;-70
2022/10/04 03:39:46;;;;;;;23.40;10.13;;;11.40;99.90;;;;;;5055531;28;20290;-70
2022/10/04 03:42:18;;;;;;;16.47;10.07;;;11.40;99.90;;;;;;5073002;28;20271;-70
2022/10/04 03:44:46;;;;;;;22.00;10.77;;;11.40;99.90;;;;;;5073299;28;20305;-70
2022/10/04 03:47:20;;;;;;;16.53;9.77;;;11.40;99.90;;;;;;5054871;28;20289;-70
2022/10/04 03:49:48;;;;;;;17.97;9.40;;;11.40;99.90;;;;;;5055327;28;20282;-70
2022/10/04 03:52:36;;;;;;;17.70;10.23;;;11.40;99.90;;;;;;5072883;28;20639;-70
2022/10/04 03:55:06;;;;;;;15.23;10.37;;;11.40;99.90;;;;;;5072904;28;20271;-70
2022/10/04 03:57:33;;;;;;;17.60;10.60;;;11.30;99.90;;;;;;5073100;28;20271;-70
2022/10/04 04:00:00;;;;;;;21.17;11.97;;;11.30;99.90;;;;;;5054796;28;20318;-70
2022/10/04 04:02:33;;;;;;;19.73;11.53;;;11.30;99.90;;;;;;5073291;28;20274;-70
2022/10/04 04:05:12;;;;;;;21.13;10.77;;;11.30;99.90;;;;;;5072754;28;20335;-70
2022/10/04 04:07:41;;;;;;;26.43;12.47;;;11.30;99.90;;;;;;5073218;28;20286;-70
2022/10/04 04:10:26;;;;;;;23.20;11.73;;;11.30;99.90;;;;;;5072615;28;20282;-70
2022/10/04 04:13:06;;;;;;;24.27;10.95;;;11.30;99.90;;;;;;5072727;28;20848;-70
2022/10/04 04:15:33;;;;;;;21.00;12.10;;;11.40;99.90;;;;;;5073328;28;20458;-70
2022/10/04 04:18:11;;;;;;;20.03;11.47;;;11.40;99.90;;;;;;5054602;28;20782;-70
2022/10/04 04:20:37;;;;;;;25.77;11.67;;;11.30;99.90;;;;;;5073016;28;20385;-70
2022/10/04 04:23:19;;;;;;;27.27;12.37;;;11.30;99.90;;;;;;5054653;28;20460;-70
2022/10/04 04:25:53;;;;;;;21.10;11.53;;;11.30;99.90;;;;;;5055029;28;20364;-70
2022/10/04 04:28:28;;;;;;;20.50;12.30;;;11.30;99.90;;;;;;5072837;28;20271;-70
2022/10/04 04:31:03;;;;;;;;;;;11.30;99.90;;;;;;5073567;28;20289;-71
2022/10/04 04:33:33;;;;;;;18.23;11.70;;;11.30;99.90;;;;;;5072638;28;19971;-70
2022/10/04 04:36:09;;;;;;;20.93;13.37;;;11.30;99.90;;;;;;5054664;28;20618;-70
2022/10/04 04:39:32;;;;;;;27.27;12.30;;;11.30;99.90;;;;;;5055272;28;20324;-70
2022/10/04 04:41:22;;;;;;;21.70;12.23;;;11.20;99.90;;;;;;5072307;28;20278;-70
2022/10/04 04:43:49;;;;;;;24.23;12.33;;;11.20;99.90;;;;;;5072571;28;20278;-70
2022/10/04 04:46:15;;;;;;;17.93;12.00;;;11.20;99.90;;;;;;5072214;28;20307;-70
2022/10/04 04:48:48;;;;;;;22.33;12.73;;;11.20;99.90;;;;;;5072531;28;20290;-70
2022/10/04 04:51:20;;;;;;;21.77;12.20;;;11.20;99.90;;;;;;5054570;28;20287;-70
2022/10/04 04:53:48;;;;;;;21.00;12.67;;;11.20;99.90;;;;;;5072675;28;20278;-70
2022/10/04 04:56:22;;;;;;;19.13;11.30;;;11.30;99.90;;;;;;5072178;28;20742;-70
2022/10/04 04:58:50;;;;;;;19.77;12.00;;;11.30;99.90;;;;;;5054895;28;20310;-70
2022/10/04 05:01:22;;;;;;;25.53;12.03;;;11.20;99.90;;;;;;5076120;28;20337;-70
2022/10/04 05:04:03;;;;;;;20.40;12.07;;;11.30;99.90;;;;;;5076193;28;20331;-70
2022/10/04 05:06:30;;;;;;;16.70;11.73;;;11.20;99.90;;;;;;5058565;28;20662;-70
2022/10/04 05:08:56;;;;;;;18.03;12.20;;;11.20;99.90;;;;;;5058244;28;20287;-70
2022/10/04 05:11:29;;;;;;;24.07;13.23;;;11.20;99.90;;;;;;5075671;28;20289;-70
2022/10/04 05:13:58;;;;;;;26.63;12.10;;;11.20;99.90;;;;;;5076066;28;20052;-70
2022/10/04 05:16:33;;;;;;;21.97;12.07;;;11.10;99.90;;;;;;5058093;28;20854;-70
2022/10/04 05:19:02;;;;;;;22.48;12.13;;;11.20;99.90;;;;;;5058304;28;20322;-70
2022/10/04 05:21:33;;;;;;;18.63;12.13;;;11.20;99.90;;;;;;5057929;28;20106;-70
2022/10/04 05:24:12;;;;;;;19.70;13.23;;;11.20;99.90;;;;;;5075930;28;20290;-69
2022/10/04 05:26:41;;;;;;;23.47;13.70;;;11.20;99.90;;;;;;5075992;28;20298;-70
2022/10/04 05:29:18;;;;;;;22.10;12.67;;;11.20;99.90;;;;;;5075542;28;20274;-70
2022/10/04 05:32:04;;;;;;;17.60;13.27;;;11.10;99.90;;;;;;5058108;28;20302;-70
2022/10/04 05:34:35;;;;;;;;;;;11.10;99.90;;;;;;5076466;28;20277;-70
2022/10/04 05:37:26;;;;;;;20.90;12.40;;;11.10;99.90;;;;;;5075656;28;19973;-70
2022/10/04 05:40:18;;;;;;;20.17;11.57;;;11.10;99.90;;;;;;5075847;28;20404;-72
2022/10/04 05:42:45;;;;;;;23.20;13.30;;;11.10;99.90;;;;;;5075764;28;20286;-70
2022/10/04 05:45:18;;;;;;;22.60;12.87;;;11.10;99.90;;;;;;5075133;28;20412;-70
2022/10/04 05:47:47;;;;;;;19.43;11.67;;;11.10;99.90;;;;;;5075518;28;20338;-70
2022/10/04 05:50:26;;;;;;;19.07;12.73;;;11.10;99.90;;;;;;5057537;28;20286;-70
2022/10/04 05:52:52;;;;;;;25.70;14.10;;;11.10;99.90;;;;;;5075627;28;20287;-70
2022/10/04 05:55:31;;;;;;;20.43;11.80;;;11.10;99.90;;;;;;5075043;28;20358;-70
2022/10/04 05:58:24;;;;;;;22.27;12.77;;;11.10;99.90;;;;;;5075434;28;20393;-70
2022/10/04 06:01:10;;;;;;;25.93;14.90;;;11.20;99.90;;;;;;5075217;28;20283;-70
2022/10/04 06:03:48;;;;;;;21.47;13.60;;;11.10;99.90;;;;;;5057834;28;20302;-70
2022/10/04 06:06:36;;;;;;;19.73;12.80;;;11.20;99.90;;;;;;5056912;28;20303;-70
2022/10/04 06:09:26;;;;;;;20.93;12.73;;;11.20;99.90;;;;;;5075177;28;20275;-70
2022/10/04 06:12:10;;;;;;;23.03;13.63;;;11.10;99.90;;;;;;5074358;28;20803;-70
2022/10/04 06:14:55;;;;;;;23.70;13.67;;;11.10;99.90;;;;;;5074879;28;20279;-70
2022/10/04 06:17:29;;;;;;;18.95;12.55;;;11.10;99.90;;;;;;5074603;28;20282;-70
2022/10/04 06:20:29;;;;;;;20.10;12.68;;;11.20;99.90;;;;;;5074746;28;20060;-70
2022/10/04 06:23:04;;;;;;;22.93;13.77;;;11.20;99.90;;;;;;5075020;28;20056;-70
2022/10/04 06:25:41;;;;;;;23.53;14.40;;;11.20;99.90;;;;;;5074386;28;20294;-70
2022/10/04 06:28:21;;;;;;;26.40;15.27;;;11.30;99.90;;;;;;5074504;28;20758;-70
2022/10/04 06:31:07;;;;;;;26.17;15.30;;;11.30;99.90;;;;;;5074813;28;20310;-70
2022/10/04 06:33:50;;;;;;;22.33;14.10;;;11.40;99.90;;;;;;5074405;28;20275;-70
2022/10/04 06:36:27;;;;;;;26.07;14.80;;;11.40;99.90;;;;;;5074371;28;20345;-70
2022/10/04 06:39:13;;;;;;;22.73;14.93;;;11.40;99.90;;;;;;5074649;28;20271;-70
2022/10/04 06:42:16;;;;;;;23.33;14.77;;;11.50;99.90;;;;;;5074484;28;20615;-70
2022/10/04 06:45:06;;;;;;;25.20;14.73;;;11.50;99.90;;;;;;5056685;28;20295;-70
2022/10/04 06:47:35;;;;;;;23.37;15.30;;;11.60;99.90;;;;;;5074264;28;20283;-70
2022/10/04 06:50:34;;;;;;;25.10;14.60;;;11.60;99.90;;;;;;5074474;28;20279;-70
2022/10/04 06:53:03;;;;;;;21.90;15.07;;;11.80;99.90;;;;;;5056407;28;20326;-70
2022/10/04 06:56:01;;;;;;;22.57;15.23;;;11.80;99.90;;;;;;5073946;28;20336;-70
2022/10/04 06:58:53;;;;;;;23.40;13.90;;;11.90;99.90;;;;;;5073924;28;20275;-70
2022/10/04 07:01:27;;;;;;;23.53;14.50;;;11.90;99.90;;;;;;5022578;28;20450;-70
2022/10/04 07:04:08;;;;;;;27.73;15.20;;;11.90;99.90;;;;;;5074327;28;20359;-70
2022/10/04 07:06:48;;;;;;;19.30;13.03;;;12.00;99.90;;;;;;5073692;28;20309;-70
2022/10/04 07:09:23;;;;;;;19.10;13.83;;;12.00;99.90;;;;;;5073849;28;20357;-72
2022/10/04 07:12:07;;;;;;;21.63;13.03;;;12.10;99.90;;;;;;5073966;28;20345;-70
2022/10/04 07:14:44;;;;;;;20.73;13.97;;;12.20;99.90;;;;;;5073556;28;20318;-70
2022/10/04 07:17:18;;;;;;;22.73;14.37;;;12.40;99.90;;;;;;5073873;28;20279;-70
2022/10/04 07:19:49;;;;;;;19.83;12.93;;;12.60;99.90;;;;;;5073063;28;20299;-70
2022/10/04 07:22:55;;;;;;;19.57;12.40;;;12.80;99.90;;;;;;5055273;28;20287;-73
2022/10/04 07:25:29;;;;;;;19.70;11.48;;;13.00;99.90;;;;;;5073183;28;20393;-73
2022/10/04 07:31:10;;;;;;;19.10;11.80;;;13.20;99.90;;;;;;5073660;28;20084;-73
2022/10/04 07:33:43;;;;;;;17.47;12.50;;;13.20;99.90;;;;;;5073243;28;20279;-73
2022/10/04 07:36:13;;;;;;;20.97;11.60;;;13.20;99.90;;;;;;5055669;28;20274;-73
2022/10/04 07:39:24;;;;;;;20.00;11.23;;;13.20;99.90;;;;;;5055529;28;20293;-73
2022/10/04 07:42:06;;;;;;;19.87;11.80;;;13.20;99.90;;;;;;5034741;28;20643;-73
2022/10/04 07:44:39;;;;;;;18.67;11.83;;;13.20;99.90;;;;;;5055370;28;20295;-73
2022/10/04 07:47:19;;;;;;;19.80;12.27;;;13.10;99.90;;;;;;5055518;28;20297;-73
2022/10/04 07:49:48;;;;;;;17.27;11.27;;;13.00;99.90;;;;;;5055557;28;20286;-72
2022/10/04 07:52:25;;;;;;;18.27;11.23;;;13.00;99.90;;;;;;5073221;28;20278;-73
2022/10/04 07:55:10;;;;;;;18.87;12.00;;;13.00;99.90;;;;;;5055552;28;20305;-73
2022/10/04 07:57:38;;;;;;;22.00;12.57;;;12.90;99.90;;;;;;5054968;28;20374;-73
2022/10/04 08:00:29;;;;;;;18.47;12.87;;;12.90;99.90;;;;;;5055453;28;20352;-72
2022/10/04 08:02:57;;;;;;;19.07;11.90;;;13.00;99.90;;;;;;5073424;28;20297;-73
2022/10/04 08:05:42;;;;;;;22.87;12.60;;;13.10;99.90;;;;;;5072181;28;20302;-73
2022/10/04 08:08:21;;;;;;;19.43;11.17;;;13.20;99.90;;;;;;5073006;28;20315;-72
2022/10/04 08:10:59;;;;;;;19.77;12.53;;;13.30;99.90;;;;;;5055597;28;20294;-73
2022/10/04 08:13:38;;;;;;;18.60;11.57;;;13.30;99.90;;;;;;5072730;28;20278;-73
2022/10/04 08:16:31;;;;;;;18.63;11.73;;;13.40;99.90;;;;;;5072904;28;20274;-73
2022/10/04 08:19:20;;;;;;;17.83;11.87;;;13.40;99.90;;;;;;5072838;28;20361;-72
2022/10/04 08:22:00;;;;;;;21.17;11.93;;;13.40;99.90;;;;;;5053693;28;20336;-72
2022/10/04 08:24:37;;;;;;;18.33;12.00;;;13.50;99.90;;;;;;5072776;28;20638;-73
2022/10/04 08:31:24;;;;;;;19.83;10.73;;;13.50;99.90;;;;;;4971601;28;20290;-72
2022/10/04 08:34:20;;;;;;;17.20;11.30;;;13.60;99.90;;;;;;4951107;28;20301;-71
2022/10/04 08:36:45;;;;;;;18.38;11.15;;;13.60;99.90;;;;;;5060133;28;20767;-72
2022/10/04 08:39:56;;;;;;;16.63;10.83;;;13.60;99.90;;;;;;5059114;28;20084;-72
2022/10/04 08:43:02;;;;;;;17.43;11.00;;;13.70;99.90;;;;;;5077133;28;20094;-71
2022/10/04 08:45:56;;;;;;;17.20;10.20;;;13.70;99.90;;;;;;5058526;28;20782;-71
2022/10/04 08:48:48;;;;;;;16.87;10.73;;;13.80;99.90;;;;;;5076796;28;20366;-71
2022/10/04 08:51:51;;;;;;;16.97;10.37;;;13.80;99.90;;;;;;5076598;28;20677;-70
2022/10/04 08:54:45;;;;;;;17.80;10.03;;;13.80;99.90;;;;;;5076478;28;20318;-71
2022/10/04 08:57:14;;;;;;;16.23;9.83;;;13.90;99.90;;;;;;5076635;28;20379;-71
2022/10/04 08:59:44;;;;;;;20.83;10.50;;;13.90;99.90;;;;;;5076345;28;20295;-71
2022/10/04 09:02:27;;;;;;;14.87;9.57;;;13.90;99.90;;;;;;5075995;28;20859;-71
2022/10/04 09:05:13;;;;;;;17.00;10.17;;;13.90;99.90;;;;;;5076460;28;20302;-71
2022/10/04 09:07:57;;;;;;;;;;;13.90;99.90;;;;;;5076085;28;20283;-71
2022/10/04 09:10:34;;;;;;;19.27;10.90;;;14.00;99.90;;;;;;5055735;28;20380;-71
2022/10/04 09:13:25;;;;;;;13.93;9.67;;;14.00;99.90;;;;;;5072891;28;20310;-71
2022/10/04 09:15:58;;;;;;;18.30;10.57;;;14.00;99.90;;;;;;5075772;28;20282;-71
2022/10/04 09:18:49;;;;;;;19.10;11.67;;;14.00;99.90;;;;;;5058228;28;20415;-71
2022/10/04 09:21:33;;;;;;;19.27;11.70;;;14.10;99.90;;;;;;5030776;28;20301;-72
2022/10/04 09:24:24;;;;;;;20.77;12.63;;;14.10;99.90;;;;;;5058265;28;20361;-72
2022/10/04 09:27:38;;;;;;;17.17;12.83;;;14.10;99.90;;;;;;5075236;28;20310;-72
2022/10/04 09:30:39;;;;;;;19.80;12.27;;;14.10;99.90;;;;;;5057897;28;20666;-76
2022/10/04 09:33:21;;;;;;;22.20;14.13;;;14.10;99.90;;;;;;4974484;28;20301;-75
2022/10/04 09:35:47;;;;;;;18.53;13.77;;;;;;;;;;5065409;28;20658;-74
2022/10/04 09:38:25;;;;;;;17.03;13.07;;;14.50;99.90;;;;;;5057885;28;20301;-75
2022/10/04 09:41:25;;;;;;;21.33;14.10;;;14.50;99.90;;;;;;5075210;28;20834;-72
2022/10/04 09:44:07;;;;;;;19.27;15.10;;;;;;;;;;5075208;28;20611;-68
2022/10/04 09:46:43;;;;;;;19.23;14.93;;;;;;;;;;5074155;28;20798;-75
2022/10/04 09:49:31;;;;;;;21.03;15.60;;;;;;;;;;5075428;28;20278;-78
2022/10/04 09:52:05;;;;;;;17.90;15.20;;;;;;;;;;5074739;28;20860;-74
2022/10/04 09:54:36;;;;;;;20.87;13.80;;;;;;;;;;5075499;28;20279;-75
2022/10/04 09:57:05;;;;;;;17.57;14.30;;;;;;;;;;5075149;28;20286;-72
2022/10/04 09:59:44;;;;;;;20.87;15.00;;;;;;;;;;5075169;28;20282;-78
2022/10/04 10:02:28;;;;;;;19.23;14.70;;;;;;;;;;5057308;28;20381;-77
2022/10/04 10:05:15;;;;;;;17.95;14.25;;;;;;;;;;5074608;28;20299;-75
2022/10/04 10:07:44;;;;;;;20.10;14.60;;;;;;;;;;5074772;28;20138;-76
2022/10/04 10:13:38;;;;;;;18.43;14.17;;;;;;;;;;5075137;28;20291;-74
2022/10/04 10:16:24;;;;;;;20.47;14.90;;;;;;;;;;5075164;28;20275;-72
2022/10/04 10:18:59;;;;;;;17.87;15.13;;;;;;;;;;5074577;28;20090;-72
2022/10/04 10:21:28;;;;;;;18.83;13.93;;;;;;;;;;5074924;28;20393;-71
2022/10/04 10:24:03;;;;;;;20.83;13.97;;;;;;;;;;5074465;28;20102;-71
2022/10/04 10:26:32;;;;;;;20.50;15.03;;;;;;;;;;5074762;28;20106;-70
2022/10/04 10:29:01;;;;;;;15.40;13.37;;;;;;;;;;5074435;28;20052;-70
2022/10/04 10:31:50;;;;;;;20.77;13.93;;;;;;;;;;5074649;28;20290;-71
2022/10/04 10:34:18;;;;;;;17.60;13.60;;;15.50;99.90;;;;;;5058621;28;20294;-70
2022/10/04 10:37:08;;;;;;;16.67;13.33;;;15.50;99.90;;;;;;5073932;28;20443;-71
2022/10/04 10:40:05;;;;;;;18.67;13.27;;;15.60;99.90;;;;;;5074512;28;20279;-71
2022/10/04 10:43:08;;;;;;;19.43;13.07;;;15.50;99.90;;;;;;5074177;28;20481;-70
2022/10/04 10:45:39;;;;;;;16.27;12.23;;;;;;;;;;5074320;28;20059;-71
2022/10/04 10:48:12;;;;;;;17.93;11.97;;;;;;;;;;5074626;28;20054;-71
2022/10/04 10:51:14;;;;;;;16.97;12.67;;;;;;;;;;5074319;28;20279;-71
2022/10/04 10:54:09;;;;;;;18.10;11.60;;;;;;;;;;4957202;28;20051;-72
2022/10/04 10:56:38;;;;;;;15.52;11.57;;;;;;;;;;5001949;28;20050;-71
2022/10/04 10:59:19;;;;;;;16.03;10.90;;;;;;;;;;5073405;28;20059;-72
2022/10/04 11:02:04;;;;;;;15.30;11.03;;;;;;;;;;5073220;28;20115;-71
2022/10/04 11:04:44;;;;;;;13.52;10.50;;;;;;;;;;5071752;28;20044;-70
2022/10/04 11:07:36;;;;;;;17.67;10.63;;;;;;;;;;5070982;28;20454;-74
2022/10/04 11:10:05;;;;;;;14.43;10.53;;;;;;;;;;5072850;28;20052;-73
2022/10/04 11:12:31;;;;;;;16.37;10.63;;;;;;;;;;5073974;28;20433;-73
2022/10/04 11:14:58;;;;;;;16.00;10.13;;;;;;;;;;5055821;28;20489;-72
2022/10/04 11:17:42;;;;;;;17.53;10.53;;;;;;;;;;5073602;28;20052;-76
2022/10/04 11:20:27;;;;;;;13.48;9.63;;;;;;;;;;5049677;28;20099;-75
2022/10/04 11:23:13;;;;;;;13.45;9.20;;;;;;;;;;5035618;28;20084;-75
2022/10/04 11:25:56;;;;;;;15.03;9.70;;;;;;;;;;5035784;28;20096;-72
2022/10/04 11:28:25;;;;;;;15.60;10.77;;;;;;;;;;5055814;28;20045;-72
2022/10/04 11:31:10;;;;;;;13.97;9.57;;;;;;;;;;5029825;28;20046;-72
2022/10/04 11:34:16;;;;;;;14.63;9.48;;;16.10;99.90;;;;;;5031652;28;20496;-72
2022/10/04 11:36:54;;;;;;;;;;;16.10;99.90;;;;;;5033701;28;20091;-72
2022/10/04 11:39:47;;;;;;;12.47;8.70;;;16.10;99.90;;;;;;5033680;28;19925;-72
2022/10/04 11:42:29;;;;;;;15.17;9.47;;;16.10;99.90;;;;;;5033652;28;20049;-72
2022/10/04 11:45:23;;;;;;;15.50;8.50;;;16.10;99.90;;;;;;5016006;28;20049;-72
2022/10/04 11:48:00;;;;;;;14.17;8.67;;;16.10;99.90;;;;;;5015913;28;20053;-71
2022/10/04 11:50:41;;;;;;;12.77;8.10;;;16.20;99.90;;;;;;5033532;28;20060;-72
2022/10/04 11:53:26;;;;;;;12.50;6.67;;;16.20;99.90;;;;;;5033330;28;20127;-72
2022/10/04 11:56:13;;;;;;;14.63;7.97;;;16.20;99.90;;;;;;5033183;28;20045;-71
2022/10/04 11:59:07;;;;;;;10.80;7.17;;;16.30;99.90;;;;;;5033355;28;20292;-71
2022/10/04 12:02:04;;;;;;;14.07;8.10;;;16.30;99.90;;;;;;5033564;28;20054;-72
2022/10/04 12:04:30;;;;;;;10.70;7.57;;;;;;;;;;5033324;28;20041;-72
2022/10/04 12:07:15;;;;;;;13.90;8.90;;;;;;;;;;5032988;28;20053;-72
2022/10/04 12:09:41;;;;;;;15.52;7.75;;;;;;;;;;5032918;28;20470;-71
2022/10/04 12:15:10;;;;;;;15.38;8.93;;;;;;;;;;5033005;28;20056;-71
2022/10/04 12:17:37;;;;;;;14.68;8.50;;;;;;;;;;5033258;28;20051;-71
2022/10/04 12:20:29;;;;;;;10.60;6.80;;;;;;;;;;5037732;28;20556;-71
2022/10/04 12:22:55;;;;;;;10.43;6.23;;;;;;;;;;5052842;28;20049;-71
2022/10/04 12:25:25;;;;;;;12.23;7.07;;;;;;;;;;5053094;28;20088;-72
2022/10/04 12:27:51;;;;;;;14.50;7.70;;;;;;;;;;5052745;28;20049;-72
2022/10/04 12:30:22;;;;;;;15.70;8.90;;;;;;;;;;5053007;28;20060;-71
2022/10/04 12:33:02;;;;;;;11.20;8.30;;;;;;;;;;5053071;28;20124;-71
2022/10/04 12:35:34;;;;;;;11.57;8.20;;;;;;;;;;5053294;28;20076;-71
2022/10/04 12:38:20;;;;;;;10.63;7.47;;;;;;;;;;5052662;28;20052;-72
2022/10/04 12:40:52;;;;;;;13.87;8.17;;;;;;;;;;5051890;28;20444;-72
2022/10/04 12:43:39;;;;;;;12.37;7.80;;;;;;;;;;5052858;28;20055;-71
2022/10/04 12:46:11;;;;;;;10.97;7.53;;;;;;;;;;5052516;28;20049;-72
2022/10/04 12:48:47;;;;;;;13.23;7.90;;;;;;;;;;5052796;28;20092;-72
2022/10/04 12:51:13;;;;;;;12.03;7.60;;;;;;;;;;5034774;28;20049;-71
2022/10/04 12:53:55;;;;;;;11.20;7.47;;;;;;;;;;5052714;28;20182;-72
2022/10/04 12:56:21;;;;;;;13.67;7.80;;;;;;;;;;5052699;28;20037;-72
2022/10/04 12:58:50;;;;;;;13.23;8.23;;;;;;;;;;5052701;28;20466;-71
2022/10/04 13:01:31;;;;;;;13.27;7.50;;;;;;;;;;5052395;28;20049;-71
2022/10/04 13:04:04;;;;;;;10.97;8.17;;;;;;;;;;5052363;28;20504;-71
2022/10/04 13:06:31;;;;;;;12.77;8.10;;;;;;;;;;5052760;28;20048;-72
2022/10/04 13:09:07;;;;;;;13.07;7.43;;;;;;;;;;5052296;28;20064;-71
2022/10/04 13:11:45;;;;;;;9.73;6.73;;;;;;;;;;5035049;28;20500;-72
2022/10/04 13:14:14;;;;;;;11.27;6.77;;;;;;;;;;5052308;28;20049;-72
2022/10/04 13:16:41;;;;;;;14.17;7.00;;;;;;;;;;5052504;28;20072;-71
2022/10/04 13:19:21;;;;;;;14.37;7.27;;;;;;;;;;5052145;28;20135;-72
2022/10/04 13:22:06;;;;;;;13.03;7.20;;;;;;;;;;5055419;28;20103;-71
2022/10/04 13:24:53;;;;;;;11.18;7.00;;;;;;;;;;5056106;28;20100;-72
2022/10/04 13:27:20;;;;;;;12.33;8.43;;;;;;;;;;5037946;28;20428;-72
2022/10/04 13:30:06;;;;;;;13.03;6.90;;;;;;;;;;5056177;28;20049;-71
2022/10/04 13:32:41;;;;;;;13.33;7.33;;;;;;;;;;5056227;28;20488;-71
2022/10/04 13:35:07;;;;;;;12.40;8.00;;;;;;;;;;5055724;28;20052;-71
2022/10/04 13:37:53;;;;;;;12.33;7.70;;;;;;;;;;5055892;28;20045;-71
2022/10/04 13:40:20;;;;;;;10.57;7.10;;;;;;;;;;5055643;28;20091;-72
2022/10/04 13:42:49;;;;;;;13.30;7.00;;;;;;;;;;5055688;28;20100;-71
2022/10/04 13:45:17;;;;;;;9.30;6.27;;;;;;;;;;5037699;28;20049;-72
2022/10/04 13:47:43;;;;;;;10.60;6.90;;;;;;;;;;5055608;28;20049;-72
2022/10/04 13:50:19;;;;;;;12.03;6.87;;;;;;;;;;5055334;28;20057;-71
2022/10/04 13:58:34;;;;;;;12.13;6.95;;;;;;;;;;5055229;28;20049;-72
2022/10/04 14:01:19;;;;;;;12.40;7.33;;;;;;;;;;5021362;28;20037;-72
2022/10/04 14:03:51;;;;;;;12.43;6.50;;;;;;;;;;5055247;28;20063;-72
2022/10/04 14:06:27;;;;;;;9.13;5.90;;;;;;;;;;5054904;28;20095;-72
2022/10/04 14:09:07;;;;;;;13.13;6.90;;;;;;;;;;5055333;28;20051;-71
2022/10/04 14:11:42;;;;;;;13.50;6.00;;;;;;;;;;5055412;28;20080;-71
2022/10/04 14:14:09;;;;;;;;;;;;;;;;;;5054994;28;20519;-72